createdAt,value
2023-01-24T00:01:24.361Z,89.19
2023-01-24T00:03:52.352Z,88.78
2023-01-24T00:06:21.171Z,88.38
2023-01-24T00:08:49.074Z,88.13
2023-01-24T00:11:16.955Z,88.58
2023-01-24T00:13:44.860Z,89.14
2023-01-24T00:16:21.930Z,89.57
2023-01-24T00:18:51.077Z,89.29
2023-01-24T00:21:24.596Z,90.94
2023-01-24T00:23:56.331Z,93.09
2023-01-24T00:26:26.016Z,92.94
2023-01-24T00:28:54.361Z,93.22
2023-01-24T00:31:22.492Z,93.99
2023-01-24T00:33:50.746Z,93.44
2023-01-24T00:36:18.644Z,93.14
2023-01-24T00:38:46.675Z,94.79
2023-01-24T00:41:15.168Z,94.45
2023-01-24T00:43:42.969Z,94.65
2023-01-24T00:46:11.133Z,94.15
2023-01-24T00:48:39.307Z,94.77
2023-01-24T00:51:07.665Z,94.93
2023-01-24T00:53:36.489Z,95.30
2023-01-24T00:56:04.788Z,94.44
2023-01-24T00:58:34.535Z,93.59
2023-01-24T01:01:05.408Z,94.28
2023-01-24T01:03:34.085Z,93.79
2023-01-24T01:06:08.839Z,94.28
2023-01-24T01:08:36.962Z,94.00
2023-01-24T01:11:05.389Z,93.42
2023-01-24T01:13:33.499Z,92.73
2023-01-24T01:16:14.104Z,92.83
2023-01-24T01:18:42.021Z,92.78
2023-01-24T01:21:13.269Z,92.87
2023-01-24T01:23:41.874Z,93.20
2023-01-24T01:26:15.821Z,93.85
2023-01-24T01:28:44.063Z,94.17
2023-01-24T01:31:12.492Z,93.81
2023-01-24T01:33:41.048Z,93.24
2023-01-24T01:36:09.274Z,94.05
2023-01-24T01:38:38.820Z,93.73
2023-01-24T01:41:07.771Z,93.06
2023-01-24T01:43:36.426Z,92.67
2023-01-24T01:46:27.543Z,93.05
2023-01-24T01:49:02.790Z,92.84
2023-01-24T01:51:42.477Z,93.70
2023-01-24T01:54:19.413Z,93.64
2023-01-24T01:56:58.335Z,94.28
2023-01-24T01:59:36.708Z,94.86
2023-01-24T02:02:07.353Z,94.85
2023-01-24T02:04:42.389Z,94.16
2023-01-24T02:07:17.592Z,94.13
2023-01-24T02:09:49.963Z,95.08
2023-01-24T02:12:27.898Z,95.59
2023-01-24T02:15:29.175Z,96.33
2023-01-24T02:17:57.699Z,97.62
2023-01-24T02:20:39.417Z,99.27
2023-01-24T02:23:26.215Z,98.21
2023-01-24T02:26:14.350Z,98.82
2023-01-24T02:29:00.707Z,99.93
2023-01-24T02:31:28.975Z,100.00
2023-01-24T02:33:57.205Z,100.00
2023-01-24T02:36:36.845Z,100.00
2023-01-24T02:39:19.061Z,100.00
2023-01-24T02:41:54.104Z,100.00
2023-01-24T02:45:13.396Z,100.00
2023-01-24T02:47:47.611Z,100.00
2023-01-24T02:50:20.212Z,100.00
2023-01-24T02:53:08.502Z,100.00
2023-01-24T02:55:56.167Z,100.00
2023-01-24T02:58:26.450Z,100.00
2023-01-24T03:00:54.532Z,100.00
2023-01-24T03:03:22.577Z,100.00
2023-01-24T03:06:00.115Z,100.00
2023-01-24T03:08:34.694Z,100.00
2023-01-24T03:11:05.761Z,100.00
2023-01-24T03:13:53.287Z,100.00
2023-01-24T03:16:40.661Z,100.00
2023-01-24T03:19:27.316Z,100.00
2023-01-24T03:22:13.904Z,100.00
2023-01-24T03:25:00.554Z,100.00
2023-01-24T03:27:47.569Z,100.00
2023-01-24T03:30:37.242Z,100.00
2023-01-24T03:33:24.439Z,100.00
2023-01-24T03:35:55.957Z,100.00
2023-01-24T03:38:46.043Z,100.00
2023-01-24T03:41:14.519Z,100.00
2023-01-24T03:43:44.825Z,100.00
2023-01-24T03:46:13.406Z,100.00
2023-01-24T03:48:52.202Z,100.00
2023-01-24T03:51:42.469Z,100.00
2023-01-24T03:54:10.327Z,100.00
2023-01-24T03:56:46.608Z,100.00
2023-01-24T03:59:14.666Z,100.00
2023-01-24T04:01:43.245Z,100.00
2023-01-24T04:04:23.348Z,100.00
2023-01-24T04:06:51.613Z,100.00
2023-01-24T04:09:21.116Z,100.00
2023-01-24T04:11:49.162Z,100.00
2023-01-24T04:14:23.278Z,100.00
2023-01-24T04:16:57.835Z,100.00
2023-01-24T04:19:31.190Z,100.00
2023-01-24T04:21:59.388Z,100.00
2023-01-24T04:24:27.824Z,100.00
2023-01-24T04:26:55.879Z,100.00
2023-01-24T04:29:28.307Z,100.00
2023-01-24T04:31:57.843Z,100.00
2023-01-24T04:34:52.229Z,100.00
2023-01-24T04:37:29.108Z,100.00
2023-01-24T04:39:57.122Z,100.00
2023-01-24T04:42:25.449Z,100.00
2023-01-24T04:44:53.619Z,100.00
2023-01-24T04:47:21.771Z,100.00
2023-01-24T04:49:50.013Z,100.00
2023-01-24T04:52:20.245Z,100.00
2023-01-24T04:55:00.982Z,100.00
2023-01-24T04:57:29.582Z,100.00
2023-01-24T04:59:58.933Z,100.00
2023-01-24T05:02:27.279Z,100.00
2023-01-24T05:04:55.378Z,100.00
2023-01-24T05:07:23.752Z,100.00
2023-01-24T05:09:58.668Z,100.00
2023-01-24T05:12:26.941Z,100.00
2023-01-24T05:14:55.172Z,100.00
2023-01-24T05:17:23.137Z,100.00
2023-01-24T05:19:52.291Z,100.00
2023-01-24T05:22:20.529Z,100.00
2023-01-24T05:24:48.499Z,100.00
2023-01-24T05:27:17.431Z,100.00
2023-01-24T05:29:47.734Z,100.00
2023-01-24T05:32:16.088Z,100.00
2023-01-24T05:34:44.094Z,100.00
2023-01-24T05:37:12.254Z,100.00
2023-01-24T05:39:43.633Z,100.00
2023-01-24T05:42:11.708Z,100.00
2023-01-24T05:44:45.532Z,100.00
2023-01-24T05:47:14.075Z,100.00
2023-01-24T05:49:43.934Z,100.00
2023-01-24T05:52:12.078Z,100.00
2023-01-24T05:54:49.250Z,100.00
2023-01-24T05:57:25.342Z,100.00
2023-01-24T06:00:14.446Z,100.00
2023-01-24T06:02:52.331Z,100.00
2023-01-24T06:05:20.890Z,100.00
2023-01-24T06:07:49.154Z,100.00
2023-01-24T06:10:17.275Z,100.00
2023-01-24T06:13:20.793Z,100.00
2023-01-24T06:15:48.993Z,100.00
2023-01-24T06:18:19.460Z,100.00
2023-01-24T06:20:50.351Z,100.00
2023-01-24T06:23:27.463Z,100.00
2023-01-24T06:26:01.619Z,100.00
2023-01-24T06:28:30.232Z,100.00
2023-01-24T06:31:06.206Z,100.00
2023-01-24T06:34:03.441Z,100.00
2023-01-24T06:37:09.763Z,100.00
2023-01-24T06:39:40.907Z,100.00
2023-01-24T06:42:20.643Z,100.00
2023-01-24T06:44:51.569Z,100.00
2023-01-24T06:47:19.546Z,100.00
2023-01-24T06:49:47.457Z,100.00
2023-01-24T06:52:15.359Z,100.00
2023-01-24T06:54:43.410Z,100.00
2023-01-24T06:57:11.331Z,100.00
2023-01-24T06:59:39.164Z,100.00
2023-01-24T07:02:07.159Z,100.00
2023-01-24T07:04:36.486Z,100.00
2023-01-24T07:07:07.187Z,100.00
2023-01-24T07:09:35.159Z,100.00
2023-01-24T07:12:03.015Z,100.00
2023-01-24T07:14:30.939Z,100.00
2023-01-24T07:16:59.230Z,100.00
2023-01-24T07:19:27.341Z,100.00
2023-01-24T07:21:57.847Z,100.00
2023-01-24T07:24:28.512Z,100.00
2023-01-24T07:26:57.751Z,100.00
2023-01-24T07:29:25.830Z,100.00
2023-01-24T07:31:54.277Z,100.00
2023-01-24T07:34:22.842Z,100.00
2023-01-24T07:36:50.844Z,100.00
2023-01-24T07:39:18.802Z,100.00
2023-01-24T07:41:47.022Z,100.00
2023-01-24T07:44:15.161Z,100.00
2023-01-24T07:46:43.151Z,100.00
2023-01-24T07:49:10.962Z,100.00
2023-01-24T07:51:38.925Z,100.00
2023-01-24T07:54:09.480Z,100.00
2023-01-24T07:56:37.799Z,100.00
2023-01-24T07:59:06.002Z,100.00
2023-01-24T08:01:33.927Z,100.00
2023-01-24T08:04:02.027Z,100.00
2023-01-24T08:06:30.552Z,100.00
2023-01-24T08:08:58.514Z,100.00
2023-01-24T08:11:26.634Z,100.00
2023-01-24T08:13:55.860Z,100.00
2023-01-24T08:16:26.853Z,100.00
2023-01-24T08:18:55.127Z,100.00
2023-01-24T08:21:23.097Z,100.00
2023-01-24T08:23:51.022Z,100.00
2023-01-24T08:26:19.345Z,100.00
2023-01-24T08:28:48.639Z,100.00
2023-01-24T08:31:19.229Z,100.00
2023-01-24T08:33:47.805Z,100.00
2023-01-24T08:36:15.811Z,100.00
2023-01-24T08:38:43.678Z,100.00
2023-01-24T08:41:12.427Z,100.00
2023-01-24T08:43:40.347Z,100.00
2023-01-24T08:46:08.731Z,100.00
2023-01-24T08:48:36.837Z,100.00
2023-01-24T08:51:06.440Z,100.00
2023-01-24T08:53:35.454Z,100.00
2023-01-24T08:56:04.630Z,100.00
2023-01-24T08:58:34.479Z,100.00
2023-01-24T09:01:07.538Z,100.00
2023-01-24T09:03:35.683Z,100.00
2023-01-24T09:06:04.459Z,100.00
2023-01-24T09:08:35.174Z,100.00
2023-01-24T09:11:04.020Z,100.00
2023-01-24T09:13:32.691Z,100.00
2023-01-24T09:16:00.628Z,100.00
2023-01-24T09:18:28.627Z,100.00
2023-01-24T09:21:01.046Z,100.00
2023-01-24T09:23:30.637Z,100.00
2023-01-24T09:25:59.307Z,100.00
2023-01-24T09:28:28.413Z,100.00
2023-01-24T09:30:57.129Z,100.00
2023-01-24T09:33:25.191Z,100.00
2023-01-24T09:35:59.110Z,100.00
2023-01-24T09:38:30.207Z,100.00
2023-01-24T09:41:09.082Z,100.00
2023-01-24T09:43:43.364Z,100.00
2023-01-24T09:46:13.081Z,100.00
2023-01-24T09:48:43.476Z,99.94
2023-01-24T09:51:19.032Z,99.95
2023-01-24T09:53:55.378Z,99.07
2023-01-24T09:56:31.894Z,98.24
2023-01-24T09:59:34.503Z,97.81
2023-01-24T10:02:03.956Z,96.95
2023-01-24T10:04:39.107Z,97.07
2023-01-24T10:07:26.826Z,97.56
2023-01-24T10:10:11.042Z,98.27
2023-01-24T10:12:54.449Z,98.23
2023-01-24T10:15:35.191Z,98.41
2023-01-24T10:18:11.977Z,98.03
2023-01-24T10:21:10.688Z,98.35
2023-01-24T10:23:43.145Z,98.38
2023-01-24T10:26:39.774Z,98.42
2023-01-24T10:29:20.069Z,98.35
2023-01-24T10:32:02.796Z,99.02
2023-01-24T10:34:55.789Z,99.19
2023-01-24T10:37:27.089Z,99.10
2023-01-24T10:39:57.748Z,98.78
2023-01-24T10:42:29.238Z,99.04
2023-01-24T10:45:02.221Z,98.74
2023-01-24T10:47:46.740Z,98.79
2023-01-24T10:50:17.411Z,97.93
2023-01-24T10:52:49.925Z,97.11
2023-01-24T10:55:48.109Z,96.54
2023-01-24T10:58:24.657Z,96.24
2023-01-24T11:01:21.497Z,95.14
2023-01-24T11:03:51.690Z,94.61
2023-01-24T11:06:28.923Z,93.57
2023-01-24T11:09:04.531Z,93.25
2023-01-24T11:11:34.675Z,92.44
2023-01-24T11:14:03.828Z,92.67
2023-01-24T11:16:42.198Z,91.78
2023-01-24T11:19:34.985Z,92.03
2023-01-24T11:22:23.440Z,92.01
2023-01-24T11:24:59.659Z,92.32
2023-01-24T11:27:28.800Z,91.83
2023-01-24T11:30:12.678Z,92.02
2023-01-24T11:33:07.516Z,91.57
2023-01-24T11:35:42.296Z,91.01
2023-01-24T11:38:25.519Z,90.70
2023-01-24T11:41:16.675Z,91.40
2023-01-24T11:43:50.522Z,92.38
2023-01-24T11:47:12.940Z,91.91
2023-01-24T11:49:50.042Z,90.93
2023-01-24T11:52:36.380Z,91.15
2023-01-24T11:55:19.123Z,91.49
2023-01-24T11:57:47.122Z,90.97
2023-01-24T12:00:37.847Z,90.72
2023-01-24T12:03:38.255Z,91.48
2023-01-24T12:06:34.516Z,91.59
2023-01-24T12:09:18.001Z,91.16
2023-01-24T12:12:14.272Z,90.63
2023-01-24T12:14:53.113Z,90.33
2023-01-24T12:17:38.919Z,90.62
2023-01-24T12:20:31.702Z,90.11
2023-01-24T12:23:12.389Z,90.46
2023-01-24T12:25:46.245Z,90.93
2023-01-24T12:28:26.757Z,90.51
2023-01-24T12:30:58.740Z,90.14
2023-01-24T12:33:52.170Z,89.15
2023-01-24T12:36:45.230Z,87.49
2023-01-24T12:39:21.550Z,88.42
2023-01-24T12:42:02.462Z,88.42
2023-01-24T12:44:38.150Z,88.36
2023-01-24T12:47:25.795Z,88.23
2023-01-24T12:50:15.275Z,88.00
2023-01-24T12:52:43.401Z,87.17
2023-01-24T12:55:17.470Z,87.51
2023-01-24T12:57:49.819Z,87.81
2023-01-24T13:00:26.580Z,87.70
2023-01-24T13:03:03.754Z,87.53
2023-01-24T13:06:02.480Z,87.78
2023-01-24T13:08:38.732Z,87.93
2023-01-24T13:11:29.232Z,88.38
2023-01-24T13:14:03.722Z,87.93
2023-01-24T13:16:57.055Z,87.82
2023-01-24T13:19:34.324Z,88.04
2023-01-24T13:22:30.683Z,88.30
2023-01-24T13:25:43.349Z,87.81
2023-01-24T13:28:39.345Z,88.16
2023-01-24T13:31:26.393Z,88.36
2023-01-24T13:34:03.461Z,88.39
2023-01-24T13:36:37.757Z,88.25
2023-01-24T13:39:07.279Z,87.98
2023-01-24T13:41:39.408Z,88.07
2023-01-24T13:44:07.363Z,88.28
2023-01-24T13:46:44.544Z,88.56
2023-01-24T13:49:38.249Z,87.64
2023-01-24T13:52:38.058Z,87.55
2023-01-24T13:55:30.948Z,87.78
2023-01-24T13:58:08.651Z,88.57
2023-01-24T14:00:42.875Z,88.95
2023-01-24T14:03:37.082Z,88.41
2023-01-24T14:06:04.891Z,88.13
2023-01-24T14:08:38.172Z,88.35
2023-01-24T14:11:05.991Z,88.49
2023-01-24T14:13:49.174Z,88.72
2023-01-24T14:16:29.045Z,89.89
2023-01-24T14:19:13.225Z,90.86
2023-01-24T14:22:12.564Z,91.04
2023-01-24T14:24:53.101Z,92.04
2023-01-24T14:27:47.183Z,92.51
2023-01-24T14:30:15.028Z,92.20
2023-01-24T14:32:50.306Z,92.66
2023-01-24T14:35:20.974Z,93.05
2023-01-24T14:37:51.730Z,92.84
2023-01-24T14:40:26.116Z,92.69
2023-01-24T14:43:06.613Z,92.76
2023-01-24T14:45:35.356Z,92.50
2023-01-24T14:48:09.853Z,92.59
2023-01-24T14:50:39.394Z,92.68
2023-01-24T14:53:24.886Z,92.94
2023-01-24T14:55:54.952Z,93.30
2023-01-24T14:58:27.909Z,93.49
2023-01-24T15:00:58.669Z,93.79
2023-01-24T15:03:36.246Z,93.87
2023-01-24T15:06:17.659Z,94.06
2023-01-24T15:08:46.351Z,94.14
2023-01-24T15:11:32.639Z,94.01
2023-01-24T15:14:07.703Z,93.93
2023-01-24T15:16:47.404Z,94.63
2023-01-24T15:19:22.595Z,94.84
2023-01-24T15:21:53.722Z,95.01
2023-01-24T15:24:30.182Z,95.22
2023-01-24T15:27:00.662Z,95.15
2023-01-24T15:29:46.925Z,95.43
2023-01-24T15:32:31.212Z,95.38
2023-01-24T15:35:24.241Z,95.99
2023-01-24T15:38:30.403Z,96.45
2023-01-24T15:41:21.364Z,96.94
2023-01-24T15:43:51.724Z,97.08
2023-01-24T15:46:57.725Z,97.35
2023-01-24T15:49:33.990Z,97.75
2023-01-24T15:52:18.707Z,98.34
2023-01-24T15:54:57.409Z,98.42
2023-01-24T15:57:38.885Z,98.43
2023-01-24T16:00:09.837Z,98.58
2023-01-24T16:02:38.096Z,99.02
2023-01-24T16:05:18.655Z,99.40
2023-01-24T16:07:46.823Z,99.00
2023-01-24T16:10:18.335Z,99.06
2023-01-24T16:12:49.473Z,99.22
2023-01-24T16:15:20.071Z,99.29
2023-01-24T16:17:48.380Z,99.48
2023-01-24T16:20:21.132Z,99.75
2023-01-24T16:22:49.773Z,99.51
2023-01-24T16:25:18.552Z,99.77
2023-01-24T16:27:47.100Z,99.87
2023-01-24T16:30:24.388Z,99.86
2023-01-24T16:32:53.789Z,99.98
2023-01-24T16:35:22.608Z,100.00
2023-01-24T16:37:50.565Z,100.00
2023-01-24T16:40:19.101Z,100.00
2023-01-24T16:42:48.840Z,100.00
2023-01-24T16:45:19.902Z,100.00
2023-01-24T16:47:48.464Z,100.00
2023-01-24T16:50:17.619Z,100.00
2023-01-24T16:52:46.543Z,100.00
2023-01-24T16:55:15.522Z,100.00
2023-01-24T16:57:44.504Z,100.00
2023-01-24T17:00:14.289Z,100.00
2023-01-24T17:02:43.778Z,100.00
2023-01-24T17:05:13.123Z,100.00
2023-01-24T17:07:41.305Z,100.00
2023-01-24T17:10:11.421Z,100.00
2023-01-24T17:12:39.413Z,100.00
2023-01-24T17:15:08.420Z,100.00
2023-01-24T17:17:37.275Z,100.00
2023-01-24T17:20:07.582Z,100.00
2023-01-24T17:22:36.518Z,100.00
2023-01-24T17:25:08.693Z,99.99
2023-01-24T17:30:35.044Z,99.90
2023-01-24T17:33:05.143Z,99.94
2023-01-24T17:35:33.011Z,99.99
2023-01-24T17:38:03.439Z,100.00
2023-01-24T17:40:32.299Z,100.00
2023-01-24T17:43:00.353Z,100.00
2023-01-24T17:45:28.321Z,100.00
2023-01-24T17:47:56.600Z,100.00
2023-01-24T17:50:24.593Z,100.00
2023-01-24T17:52:52.480Z,100.00
2023-01-24T17:55:20.508Z,99.99
2023-01-24T17:57:48.414Z,99.99
2023-01-24T18:00:16.639Z,99.98
2023-01-24T18:02:47.382Z,99.99
2023-01-24T18:05:15.800Z,99.99
2023-01-24T18:07:43.870Z,100.00
2023-01-24T18:10:14.242Z,100.00
2023-01-24T18:12:42.597Z,100.00
2023-01-24T18:15:11.536Z,99.95
2023-01-24T18:17:40.148Z,99.95
2023-01-24T18:20:09.663Z,99.97
2023-01-24T18:22:44.197Z,99.84
2023-01-24T18:25:14.513Z,99.83
2023-01-24T18:27:42.608Z,99.95
2023-01-24T18:30:15.115Z,99.95
2023-01-24T18:32:43.480Z,99.97
2023-01-24T18:35:11.605Z,99.97
2023-01-24T18:37:39.629Z,100.00
2023-01-24T18:40:09.239Z,99.99
2023-01-24T18:42:37.749Z,99.94
2023-01-24T18:45:07.541Z,99.97
2023-01-24T18:47:36.183Z,99.93
2023-01-24T18:50:04.930Z,99.51
2023-01-24T18:52:34.918Z,99.71
2023-01-24T18:55:05.430Z,99.67
2023-01-24T18:57:33.788Z,99.24
2023-01-24T19:00:01.845Z,99.51
2023-01-24T19:02:30.027Z,99.78
2023-01-24T19:05:00.583Z,99.31
2023-01-24T19:07:28.622Z,98.98
2023-01-24T19:09:56.572Z,99.04
2023-01-24T19:12:24.590Z,99.21
2023-01-24T19:14:53.858Z,99.40
2023-01-24T19:17:22.653Z,99.55
2023-01-24T19:19:53.441Z,99.58
2023-01-24T19:22:23.329Z,99.42
2023-01-24T19:24:52.583Z,99.07
2023-01-24T19:27:20.548Z,99.07
2023-01-24T19:29:48.728Z,99.15
2023-01-24T19:32:16.611Z,99.25
2023-01-24T19:34:44.566Z,99.48
2023-01-24T19:37:15.502Z,99.38
2023-01-24T19:39:43.469Z,99.38
2023-01-24T19:42:11.991Z,99.41
2023-01-24T19:44:40.235Z,99.37
2023-01-24T19:47:08.445Z,99.68
2023-01-24T19:49:36.869Z,99.42
2023-01-24T19:52:04.905Z,99.85
2023-01-24T19:54:32.969Z,99.64
2023-01-24T19:57:01.050Z,99.52
2023-01-24T19:59:29.235Z,99.56
2023-01-24T20:01:57.343Z,99.56
2023-01-24T20:04:25.755Z,99.39
2023-01-24T20:06:54.850Z,99.77
2023-01-24T20:09:24.956Z,99.68
2023-01-24T20:11:53.447Z,99.71
2023-01-24T20:14:21.882Z,99.58
2023-01-24T20:16:50.417Z,99.50
2023-01-24T20:19:28.480Z,99.58
2023-01-24T20:21:59.281Z,99.83
2023-01-24T20:24:28.857Z,99.81
2023-01-24T20:26:56.942Z,99.75
2023-01-24T20:29:25.208Z,99.94
2023-01-24T20:31:54.764Z,99.84
2023-01-24T20:34:24.072Z,99.55
2023-01-24T20:36:52.811Z,99.52
2023-01-24T20:39:21.652Z,99.60
2023-01-24T20:41:50.992Z,99.57
2023-01-24T20:44:26.467Z,99.53
2023-01-24T20:46:57.667Z,99.25
2023-01-24T20:49:26.735Z,99.66
2023-01-24T20:51:55.843Z,99.35
2023-01-24T20:54:26.495Z,99.15
2023-01-24T20:57:00.548Z,99.27
2023-01-24T20:59:28.906Z,99.76
2023-01-24T21:01:57.015Z,99.89
2023-01-24T21:04:25.819Z,99.55
2023-01-24T21:06:54.000Z,99.77
2023-01-24T21:09:23.512Z,99.44
2023-01-24T21:11:52.116Z,99.54
2023-01-24T21:14:22.893Z,99.51
2023-01-24T21:16:55.648Z,99.48
2023-01-24T21:19:26.012Z,99.62
2023-01-24T21:21:54.169Z,99.80
2023-01-24T21:24:37.629Z,99.87
2023-01-24T21:27:05.867Z,99.83
2023-01-24T21:29:33.755Z,100.00
2023-01-24T21:32:04.916Z,99.93
2023-01-24T21:34:34.802Z,100.00
2023-01-24T21:37:02.888Z,100.00
2023-01-24T21:39:32.309Z,100.00
2023-01-24T21:42:01.484Z,99.86
2023-01-24T21:44:32.940Z,99.67
2023-01-24T21:47:01.742Z,99.69
2023-01-24T21:49:30.371Z,99.74
2023-01-24T21:52:01.388Z,100.00
2023-01-24T21:54:32.773Z,99.97
2023-01-24T21:57:31.285Z,100.00
2023-01-24T22:00:01.887Z,100.00
2023-01-24T22:02:44.116Z,100.00
2023-01-24T22:05:12.708Z,100.00
2023-01-24T22:07:48.252Z,99.98
2023-01-24T22:10:17.140Z,99.98
2023-01-24T22:12:45.050Z,100.00
2023-01-24T22:15:15.866Z,100.00
2023-01-24T22:17:44.060Z,100.00
2023-01-24T22:20:17.549Z,100.00
2023-01-24T22:23:21.543Z,100.00
2023-01-24T22:26:12.503Z,100.00
2023-01-24T22:28:40.713Z,100.00
2023-01-24T22:31:10.106Z,100.00
2023-01-24T22:33:38.388Z,100.00
2023-01-24T22:36:06.568Z,100.00
2023-01-24T22:38:37.175Z,100.00
2023-01-24T22:41:11.314Z,100.00
2023-01-24T22:43:39.196Z,100.00
2023-01-24T22:46:07.193Z,100.00
2023-01-24T22:48:35.076Z,100.00
2023-01-24T22:51:02.939Z,99.97
2023-01-24T22:53:30.939Z,99.97
2023-01-24T22:56:03.659Z,100.00
2023-01-24T22:58:31.567Z,100.00
2023-01-24T23:01:10.593Z,100.00
2023-01-24T23:03:39.184Z,100.00
2023-01-24T23:06:09.548Z,100.00
2023-01-24T23:08:37.548Z,100.00
2023-01-24T23:11:12.578Z,100.00
2023-01-24T23:13:59.175Z,100.00
2023-01-24T23:16:38.491Z,100.00
2023-01-24T23:19:51.668Z,100.00
2023-01-24T23:22:22.562Z,100.00
2023-01-24T23:24:53.263Z,100.00
2023-01-24T23:27:25.145Z,100.00
2023-01-24T23:30:13.279Z,100.00
2023-01-24T23:32:45.371Z,100.00
2023-01-24T23:35:15.044Z,100.00
2023-01-24T23:37:43.707Z,100.00
2023-01-24T23:40:16.035Z,100.00
2023-01-24T23:42:44.371Z,100.00
2023-01-24T23:45:15.810Z,100.00
2023-01-24T23:47:46.004Z,100.00
2023-01-24T23:50:15.460Z,100.00
2023-01-24T23:52:43.521Z,100.00
2023-01-24T23:55:11.752Z,100.00
2023-01-24T23:57:39.798Z,100.00
